Time;durP1;ratioP1;P1;durP2;ratioP2;P2;SDS_P1;SDS_P2;PMS_P1;PMS_P2;Temp;Humidity;BMP_temperature;BMP_pressure;BME280_temperature;BME280_humidity;BME280_pressure;Samples;Min_cycle;Max_cycle;Signal;HPM_P1;HPM_P2
2022/04/28 00:00:53;;;;;;;5.82;2.85;;;;;;;16.37;55.46;99687.47;5112635;28;20034;-36
2022/04/28 00:03:18;;;;;;;4.72;2.80;;;;;;;16.57;54.04;99697.75;5111818;28;20035;-37
2022/04/28 00:05:44;;;;;;;6.10;2.92;;;;;;;16.40;54.84;99700.44;5112018;28;20596;-36
2022/04/28 00:08:09;;;;;;;3.70;2.70;;;;;;;16.13;55.25;99697.56;5112709;28;20030;-35
2022/04/28 00:10:36;;;;;;;4.78;2.80;;;;;;;16.30;54.79;99700.28;5112362;28;20019;-36
2022/04/28 00:13:03;;;;;;;4.47;2.58;;;;;;;16.21;55.80;99694.47;5111750;28;20534;-36
2022/04/28 00:15:29;;;;;;;4.88;3.10;;;;;;;16.35;55.33;99689.59;5112104;28;20072;-36
2022/04/28 00:17:55;;;;;;;5.80;2.70;;;;;;;15.97;56.37;99694.59;5112161;28;20103;-38
2022/04/28 00:20:21;;;;;;;3.85;2.47;;;;;;;15.98;55.90;99690.03;5112436;28;20413;-36
2022/04/28 00:22:47;;;;;;;5.30;2.70;;;;;;;15.90;55.91;99688.56;5111406;28;20070;-38
2022/04/28 00:25:12;;;;;;;3.85;2.72;;;;;;;15.97;56.15;99696.44;5111647;28;20016;-37
2022/04/28 00:27:38;;;;;;;4.70;2.70;;;;;;;16.14;55.05;99694.59;5111998;28;20062;-37
2022/04/28 00:30:05;;;;;;;7.82;3.00;;;;;;;15.99;56.18;99689.81;5111739;28;20055;-37
2022/04/28 00:32:30;;;;;;;5.60;2.70;;;;;;;16.11;55.03;99683.56;5112006;28;20126;-38
2022/04/28 00:34:56;;;;;;;5.38;2.85;;;;;;;15.95;55.54;99685.13;5111812;28;20447;-37
2022/04/28 00:37:22;;;;;;;4.82;2.78;;;;;;;15.97;55.37;99689.22;5112005;28;20372;-37
2022/04/28 00:39:48;;;;;;;4.53;2.70;;;;;;;16.03;55.09;99692.81;5111722;28;20035;-37
2022/04/28 00:42:15;;;;;;;5.53;2.80;;;;;;;16.02;55.34;99691.97;5111872;28;20050;-37
2022/04/28 00:44:41;;;;;;;5.95;2.70;;;;;;;16.10;55.39;99692.66;5111282;28;20055;-37
2022/04/28 00:47:08;;;;;;;6.93;2.75;;;;;;;16.03;54.61;99682.88;5111596;28;20348;-37
2022/04/28 00:52:19;;;;;;;4.55;2.60;;;;;;;15.80;55.24;99689.19;5112094;28;20169;-37
2022/04/28 00:54:46;;;;;;;4.75;2.55;;;;;;;15.95;55.41;99693.19;5111773;28;20057;-38
2022/04/28 00:57:13;;;;;;;4.63;2.53;;;;;;;16.11;55.21;99688.94;5111217;28;20027;-38
2022/04/28 00:59:39;;;;;;;5.55;2.92;;;;;;;16.28;54.82;99687.09;5111671;28;20042;-37
2022/04/28 01:02:11;;;;;;;4.72;2.80;;;;;;;15.95;55.11;99690.50;5111295;28;20451;-36
2022/04/28 01:04:38;;;;;;;4.63;3.05;;;;;;;16.16;55.22;99687.16;5111470;28;20039;-37
2022/04/28 01:07:05;;;;;;;4.45;2.90;;;;;;;16.05;55.80;99689.88;5111423;28;20028;-37
2022/04/28 01:09:31;;;;;;;3.80;3.03;;;;;;;16.18;55.34;99689.56;5111367;28;20031;-36
2022/04/28 01:11:56;;;;;;;5.20;3.20;;;;;;;16.21;54.68;99684.53;5111262;28;20027;-36
2022/04/28 01:14:21;;;;;;;4.28;2.90;;;;;;;16.30;54.30;99687.66;5111178;28;20034;-37
2022/04/28 01:16:47;;;;;;;5.43;2.78;;;;;;;16.44;54.98;99682.78;5111348;28;20428;-37
2022/04/28 01:19:12;;;;;;;5.72;3.40;;;;;;;16.41;54.22;99684.09;5111509;28;20451;-36
2022/04/28 01:21:38;;;;;;;4.60;2.88;;;;;;;16.42;54.89;99676.84;5111433;28;20031;-37
2022/04/28 01:24:04;;;;;;;4.70;2.92;;;;;;;16.38;54.10;99681.06;5111190;28;20032;-37
2022/04/28 01:26:29;;;;;;;4.72;3.30;;;;;;;16.33;54.87;99687.16;5111177;28;20055;-37
2022/04/28 01:28:55;;;;;;;5.70;3.70;;;;;;;16.26;55.24;99691.88;5111074;28;20062;-37
2022/04/28 01:31:20;;;;;;;6.57;3.35;;;;;;;16.39;54.79;99690.72;5111401;28;20092;-37
2022/04/28 01:33:46;;;;;;;6.93;3.90;;;;;;;16.22;55.38;99688.03;5111550;28;20545;-37
2022/04/28 01:36:11;;;;;;;8.57;3.45;;;;;;;16.15;56.14;99688.19;5115173;28;20027;-37
2022/04/28 01:38:37;;;;;;;8.32;4.30;;;;;;;16.05;56.52;99681.81;5115118;28;20028;-37
2022/04/28 01:41:02;;;;;;;4.93;3.60;;;;;;;16.02;56.36;99689.31;5115152;28;20098;-37
2022/04/28 01:43:28;;;;;;;8.10;3.60;;;;;;;16.01;55.83;99678.78;5115327;28;20100;-37
2022/04/28 01:45:53;;;;;;;6.40;3.67;;;;;;;15.94;56.75;99689.69;5114850;28;20059;-37
2022/04/28 01:48:19;;;;;;;5.15;3.65;;;;;;;15.95;56.11;99690.50;5115065;28;20043;-36
2022/04/28 01:56:15;;;;;;;6.05;3.63;;;;;;;16.06;55.80;99696.88;5115184;28;20107;-37
2022/04/28 01:58:40;;;;;;;6.50;3.67;;;;;;;16.16;55.82;99700.56;5115064;28;20028;-37
2022/04/28 02:01:06;;;;;;;6.25;3.65;;;;;;;16.24;55.16;99696.69;5114745;28;20031;-37
2022/04/28 02:03:32;;;;;;;7.85;3.90;;;;;;;16.28;55.35;99697.81;5114802;28;20035;-37
2022/04/28 02:05:58;;;;;;;5.30;3.83;;;;;;;16.26;55.48;99694.56;5114399;28;20054;-37
2022/04/28 02:08:24;;;;;;;7.95;4.40;;;;;;;16.14;55.00;99697.28;5114977;28;20439;-37
2022/04/28 02:10:50;;;;;;;8.07;4.80;;;;;;;15.97;55.49;99699.13;5114695;28;20023;-38
2022/04/28 02:13:16;;;;;;;11.13;4.97;;;;;;;15.72;56.98;99702.91;5114481;28;20020;-37
2022/04/28 02:15:42;;;;;;;11.15;5.65;;;;;;;16.02;56.27;99700.03;5114628;28;20428;-37
2022/04/28 02:18:08;;;;;;;10.25;5.78;;;;;;;16.10;55.45;99703.41;5114798;28;20142;-37
2022/04/28 02:20:34;;;;;;;13.23;5.90;;;;;;;16.04;55.52;99702.47;5114329;28;20027;-37
2022/04/28 02:22:59;;;;;;;10.80;6.13;;;;;;;16.17;55.29;99701.38;5114437;28;20185;-37
2022/04/28 02:25:25;;;;;;;10.07;5.30;;;;;;;16.10;55.44;99700.72;5114105;28;20024;-38
2022/04/28 02:27:50;;;;;;;9.98;5.63;;;;;;;16.14;55.75;99699.16;5114269;28;20023;-37
2022/04/28 02:30:16;;;;;;;8.07;4.82;;;;;;;16.12;55.44;99685.97;5114057;28;20073;-37
2022/04/28 02:35:25;;;;;;;8.32;5.07;;;;;;;16.06;56.39;99697.69;5114366;28;20038;-37
2022/04/28 02:37:50;;;;;;;10.90;5.15;;;;;;;16.17;55.85;99696.00;5114434;28;20024;-36
2022/04/28 02:40:16;;;;;;;7.60;4.78;;;;;;;16.11;56.14;99695.09;5114393;28;20023;-36
2022/04/28 02:42:41;;;;;;;10.95;4.90;;;;;;;16.02;56.54;99693.84;5113687;28;20428;-37
2022/04/28 02:45:08;;;;;;;10.38;5.10;;;;;;;16.07;56.38;99701.19;5113713;28;20522;-37
2022/04/28 02:47:35;;;;;;;12.65;4.95;;;;;;;15.93;57.14;99690.72;5113221;28;20472;-36
2022/04/28 02:50:01;;;;;;;17.65;5.57;;;;;;;15.82;56.89;99683.53;5114201;28;20032;-36
2022/04/28 02:52:27;;;;;;;14.15;5.05;;;;;;;15.95;56.43;99695.88;5113761;28;20024;-36
2022/04/28 02:54:52;;;;;;;9.23;4.60;;;;;;;15.89;56.44;99689.59;5113665;28;20435;-37
2022/04/28 02:57:18;;;;;;;13.80;4.88;;;;;;;15.95;56.75;99696.66;5113593;28;20028;-37
2022/04/28 02:59:43;;;;;;;10.45;5.20;;;;;;;15.92;57.13;99705.22;5113663;28;20063;-37
2022/04/28 03:02:08;;;;;;;14.48;4.80;;;;;;;15.86;57.56;99698.13;5113737;28;20054;-37
2022/04/28 03:04:34;;;;;;;13.70;5.30;;;;;;;16.00;56.73;99702.16;5112797;28;20043;-37
2022/04/28 03:12:27;;;;;;;11.20;5.07;;;;;;;16.07;57.44;99711.91;5113295;28;20093;-37
2022/04/28 03:14:53;;;;;;;10.55;4.68;;;;;;;16.00;58.05;99709.38;5113170;28;20016;-37
2022/04/28 03:17:18;;;;;;;11.00;5.20;;;;;;;16.07;57.10;99709.22;5113369;28;20507;-38
2022/04/28 03:19:44;;;;;;;16.90;5.10;;;;;;;16.15;57.45;99712.34;5113338;28;20032;-37
2022/04/28 03:22:09;;;;;;;17.50;5.07;;;;;;;16.21;57.43;99719.44;5113349;28;20027;-37
2022/04/28 03:24:35;;;;;;;14.15;5.20;;;;;;;16.21;57.53;99729.38;5112777;28;20028;-37
2022/04/28 03:27:00;;;;;;;10.40;4.90;;;;;;;16.20;57.93;99725.88;5113150;28;20126;-37
2022/04/28 03:29:26;;;;;;;19.15;5.10;;;;;;;16.17;57.33;99723.66;5113346;28;20027;-37
2022/04/28 03:31:51;;;;;;;8.65;4.75;;;;;;;16.20;57.20;99733.09;5112849;28;20024;-37
2022/04/28 03:34:18;;;;;;;11.48;4.97;;;;;;;16.37;56.17;99736.66;5112931;28;20080;-37
2022/04/28 03:36:53;;;;;;;13.27;7.97;;;;;;;16.35;57.22;99746.78;5112950;28;20461;-36
2022/04/28 03:39:19;;;;;;;16.95;8.05;;;;;;;16.26;57.75;99750.13;5112869;28;20032;-38
2022/04/28 03:41:44;;;;;;;29.70;12.18;;;;;;;16.22;58.50;99755.97;5112931;28;20087;-38
2022/04/28 03:44:10;;;;;;;18.08;10.25;;;;;;;16.30;57.38;99760.16;5112921;28;20102;-38
2022/04/28 03:46:36;;;;;;;12.55;6.35;;;;;;;16.44;56.62;99767.91;5112412;28;20352;-36
2022/04/28 03:49:03;;;;;;;15.68;5.18;;;;;;;16.59;56.51;99762.81;5112427;28;20100;-37
2022/04/28 03:51:28;;;;;;;10.23;4.85;;;;;;;16.60;56.89;99775.16;5112680;28;20104;-38
2022/04/28 03:53:59;;;;;;;13.55;5.32;;;;;;;16.70;56.68;99775.34;5112706;28;20097;-38
2022/04/28 03:56:31;;;;;;;19.20;6.03;;;;;;;16.73;56.94;99782.09;5112833;28;20114;-38
2022/04/28 03:59:00;;;;;;;19.50;6.10;;;;;;;16.79;56.43;99786.50;5112443;28;20099;-38
2022/04/28 04:01:26;;;;;;;15.75;5.70;;;;;;;16.78;56.41;99780.31;5112961;28;20059;-37
2022/04/28 04:03:51;;;;;;;20.48;5.57;;;;;;;16.96;56.34;99789.22;5113203;28;20039;-41
2022/04/28 04:06:17;;;;;;;17.48;6.07;;;;;;;16.93;56.11;99789.72;5112886;28;20325;-38
2022/04/28 04:08:42;;;;;;;13.50;6.00;;;;;;;16.97;57.06;99804.31;5112496;28;20030;-39
2022/04/28 04:11:08;;;;;;;26.90;7.05;;;;;;;17.05;55.84;99793.13;5112851;28;20031;-39
2022/04/28 04:13:34;;;;;;;15.23;5.93;;;;;;;16.98;55.55;99800.53;5112425;28;20024;-38
2022/04/28 04:15:59;;;;;;;20.90;6.50;;;;;;;17.00;55.99;99809.19;5112133;28;20016;-38
2022/04/28 04:18:25;;;;;;;20.35;6.55;;;;;;;17.18;56.12;99817.00;5111528;28;20515;-36
2022/04/28 04:20:50;;;;;;;45.88;24.83;;;;;;;17.33;55.21;99813.75;5111521;28;20502;-37
2022/04/28 04:23:16;;;;;;;18.90;9.43;;;;;;;17.30;55.51;99824.19;5111449;28;20080;-37
2022/04/28 04:25:41;;;;;;;27.50;10.60;;;;;;;17.29;55.42;99820.69;5111543;28;20027;-37
2022/04/28 04:28:07;;;;;;;24.63;8.70;;;;;;;17.40;55.93;99829.69;5111593;28;20023;-37
2022/04/28 04:33:16;;;;;;;17.17;5.80;;;;;;;17.56;55.42;99825.38;5111656;28;20208;-41
2022/04/28 04:35:42;;;;;;;13.73;5.25;;;;;;;17.61;55.58;99836.22;5111637;28;20118;-37
2022/04/28 04:38:07;;;;;;;10.90;4.70;;;;;;;17.69;54.90;99825.03;5111348;28;20043;-37
2022/04/28 04:40:33;;;;;;;12.10;5.50;;;;;;;17.61;54.81;99832.69;5111228;28;20020;-37
2022/04/28 04:42:58;;;;;;;9.05;5.05;;;;;;;17.71;55.11;99830.16;5111216;28;20106;-37
2022/04/28 04:45:24;;;;;;;14.00;5.45;;;;;;;18.08;54.01;99825.00;5110610;28;20015;-38
2022/04/28 04:47:49;;;;;;;8.32;4.97;;;;;;;18.60;53.83;99844.41;5111329;28;20023;-38
2022/04/28 04:50:14;;;;;;;11.13;4.70;;;;;;;18.87;52.75;99841.78;5092453;28;20030;-38
2022/04/28 04:52:40;;;;;;;12.25;4.80;;;;;;;19.15;51.24;99832.53;5111431;28;20023;-38
2022/04/28 04:55:06;;;;;;;10.80;4.53;;;;;;;19.63;50.37;99844.22;5110767;28;20027;-38
2022/04/28 04:57:31;;;;;;;11.57;4.20;;;;;;;20.05;49.40;99848.78;5110867;28;20024;-38
2022/04/28 04:59:58;;;;;;;42.42;29.13;;;;;;;20.44;48.34;99851.06;5111233;28;20019;-37
2022/04/28 05:02:24;;;;;;;13.50;6.45;;;;;;;20.93;46.89;99849.06;5110527;28;20102;-37
2022/04/28 05:04:50;;;;;;;18.83;8.73;;;;;;;21.20;46.31;99854.19;5110800;28;20112;-36
2022/04/28 05:07:16;;;;;;;23.55;9.65;;;;;;;21.72;45.26;99850.34;5111184;28;20038;-37
2022/04/28 05:09:42;;;;;;;12.05;5.43;;;;;;;22.23;43.63;99852.06;5115378;28;20144;-37
2022/04/28 05:12:08;;;;;;;12.38;4.65;;;;;;;22.68;43.18;99844.00;5117992;28;20535;-37
2022/04/28 05:14:34;;;;;;;10.68;4.50;;;;;;;23.05;42.36;99851.63;5118377;28;20030;-38
2022/04/28 05:17:00;;;;;;;9.07;4.60;;;;;;;23.41;39.56;99849.38;5117435;28;20091;-38
2022/04/28 05:19:25;;;;;;;11.85;4.10;;;;;;;23.42;42.41;99861.09;5113381;28;20057;-38
2022/04/28 05:21:51;;;;;;;7.00;3.95;;;;;;;23.55;40.91;99852.25;5102659;28;20028;-38
2022/04/28 05:24:17;;;;;;;9.73;3.70;;;;;;;23.87;40.57;99860.91;5111375;28;20024;-38
2022/04/28 05:26:42;;;;;;;8.10;4.47;;;;;;;24.06;37.79;99858.25;5117138;28;20026;-49
2022/04/28 05:29:08;;;;;;;12.15;6.32;;;;;;;23.68;38.42;99863.53;5116741;28;20463;-38
2022/04/28 05:31:33;;;;;;;9.25;4.63;;;;;;;23.31;40.40;99854.13;5116646;28;20126;-46
2022/04/28 05:33:59;;;;;;;14.02;5.43;;;;;;;23.18;40.14;99858.31;5116660;28;20436;-48
2022/04/28 05:36:26;;;;;;;20.38;11.02;;;;;;;22.90;41.17;99857.13;5117074;28;20459;-48
2022/04/28 05:38:52;;;;;;;17.63;5.05;;;;;;;22.69;40.50;99854.56;5117004;28;20047;-48
2022/04/28 05:41:18;;;;;;;13.75;5.18;;;;;;;22.28;42.21;99860.22;5116779;28;20467;-47
2022/04/28 05:46:28;;;;;;;9.25;3.50;;;;;;;21.70;44.07;99874.19;5115504;28;20072;-48
2022/04/28 05:48:53;;;;;;;13.93;4.00;;;;;;;22.78;41.00;99882.72;5117031;28;20011;-50
2022/04/28 05:51:19;;;;;;;7.82;3.67;;;;;;;22.75;40.24;99871.59;5116880;28;20489;-48
2022/04/28 05:53:44;;;;;;;7.45;3.00;;;;;;;22.80;38.29;99877.00;5115554;28;20440;-49
2022/04/28 05:56:10;;;;;;;7.10;3.33;;;;;;;23.10;38.67;99880.63;5116145;28;20019;-48
2022/04/28 05:58:35;;;;;;;8.98;3.70;;;;;;;22.81;38.29;99875.94;5116204;28;20076;-49
2022/04/28 06:01:01;;;;;;;7.75;3.88;;;;;;;22.45;38.95;99874.22;5115980;28;20100;-51
2022/04/28 06:03:27;;;;;;;7.70;3.40;;;;;;;22.69;38.72;99873.53;5116226;28;20038;-49
2022/04/28 06:05:52;;;;;;;5.32;3.28;;;;;;;23.29;38.48;99881.56;5116232;28;20055;-52
2022/04/28 06:08:18;;;;;;;4.65;2.75;;;;;;;22.99;39.21;99883.38;5116714;28;20096;-48
2022/04/28 06:10:43;;;;;;;6.40;2.90;;;;;;;23.59;38.08;99883.19;5116454;28;20039;-48
2022/04/28 06:13:09;;;;;;;4.28;2.78;;;;;;;24.17;36.06;99878.78;5116383;28;20070;-48
2022/04/28 06:15:34;;;;;;;4.85;2.60;;;;;;;24.46;35.80;99880.59;5116397;28;20137;-47
2022/04/28 06:18:00;;;;;;;15.18;2.53;;;;;;;24.48;35.26;99878.38;5116515;28;20024;-48
2022/04/28 06:20:26;;;;;;;4.75;2.70;;;;;;;24.53;35.29;99868.25;5115089;28;20015;-49
2022/04/28 06:22:52;;;;;;;4.78;2.70;;;;;;;24.80;35.25;99866.00;5113240;28;20019;-50
2022/04/28 06:25:18;;;;;;;6.90;2.85;;;;;;;24.40;35.52;99872.47;5113306;28;20367;-48
2022/04/28 06:27:43;;;;;;;7.35;2.78;;;;;;;23.83;37.26;99878.91;5112856;28;20118;-47
2022/04/28 06:30:09;;;;;;;5.47;2.55;;;;;;;24.23;37.13;99872.16;5113005;28;20023;-49
2022/04/28 06:32:35;;;;;;;6.35;3.40;;;;;;;24.88;36.13;99874.28;5113340;28;20024;-48
2022/04/28 06:35:01;;;;;;;6.95;2.67;;;;;;;25.59;33.48;99876.97;5113260;28;20047;-48
2022/04/28 06:37:26;;;;;;;6.20;2.83;;;;;;;26.14;31.64;99879.75;5112806;28;20085;-48
2022/04/28 06:39:51;;;;;;;10.00;2.72;;;;;;;26.40;31.76;99878.41;5112919;28;20051;-50
2022/04/28 06:42:19;;;;;;;6.75;2.70;;;;;;;26.74;31.13;99872.47;5110984;28;20027;-48
2022/04/28 06:44:45;;;;;;;7.50;3.00;;;;;;;26.46;32.98;99880.69;5108018;28;20042;-49
2022/04/28 06:47:10;;;;;;;5.78;2.90;;;;;;;27.18;32.09;99875.53;5112044;28;20019;-51
2022/04/28 06:49:37;;;;;;;9.77;3.50;;;;;;;27.70;30.86;99873.09;5112138;28;20475;-48
2022/04/28 06:52:02;;;;;;;8.65;3.40;;;;;;;27.90;31.43;99871.78;5110676;28;20039;-47
2022/04/28 06:54:28;;;;;;;8.07;3.45;;;;;;;28.38;29.68;99875.59;5112324;28;20027;-49
2022/04/28 06:56:53;;;;;;;9.13;3.50;;;;;;;28.75;28.78;99873.38;5112494;28;20432;-53
2022/04/28 06:59:20;;;;;;;6.45;3.10;;;;;;;28.88;28.04;99877.91;5112546;28;20483;-51
2022/04/28 07:01:46;;;;;;;6.68;2.60;;;;;;;28.14;28.55;99879.59;5112867;28;20132;-48
2022/04/28 07:04:11;;;;;;;6.45;2.70;;;;;;;27.75;28.28;99877.63;5112783;28;20496;-51
2022/04/28 07:06:37;;;;;;;6.15;2.55;;;;;;;27.90;29.38;99877.25;5112038;28;20531;-52
2022/04/28 07:09:02;;;;;;;6.13;2.40;;;;;;;28.60;28.99;99871.97;5112773;28;20506;-52
2022/04/28 07:11:28;;;;;;;5.82;2.50;;;;;;;28.36;27.37;99867.69;5112225;28;20398;-48
2022/04/28 07:13:53;;;;;;;5.10;2.20;;;;;;;27.23;28.66;99870.75;5107046;28;20024;-51
2022/04/28 07:16:19;;;;;;;8.65;2.40;;;;;;;27.11;29.07;99848.66;5100801;28;20107;-51
2022/04/28 07:18:45;;;;;;;5.22;1.92;;;;;;;27.20;28.38;99865.91;5092763;28;20207;-50
2022/04/28 07:21:10;;;;;;;4.80;2.25;;;;;;;27.60;29.43;99866.00;5074696;28;20032;-49
2022/04/28 07:23:36;;;;;;;5.93;2.30;;;;;;;27.20;29.77;99868.63;5092851;28;20165;-51
2022/04/28 07:26:01;;;;;;;7.05;2.25;;;;;;;26.21;31.24;99873.06;5092508;28;20490;-56
2022/04/28 07:28:26;;;;;;;8.82;2.60;;;;;;;26.47;30.24;99874.13;5112157;28;20028;-50
2022/04/28 07:30:52;;;;;;;7.68;2.47;;;;;;;26.95;29.91;99864.59;5094378;28;20023;-50
2022/04/28 07:33:17;;;;;;;4.93;2.10;;;;;;;27.65;30.13;99865.06;5112698;28;20027;-48
2022/04/28 07:35:43;;;;;;;4.65;2.20;;;;;;;28.74;29.27;99869.84;5112495;28;20075;-48
2022/04/28 07:38:08;;;;;;;3.88;2.20;;;;;;;28.62;28.13;99866.97;5113656;28;20026;-52
2022/04/28 07:40:35;;;;;;;8.32;2.53;;;;;;;28.24;28.85;99859.34;5111578;28;20029;-48
2022/04/28 07:43:00;;;;;;;7.80;2.30;;;;;;;27.67;29.11;99862.81;5112941;28;20035;-51
2022/04/28 07:45:26;;;;;;;6.47;2.80;;;;;;;27.90;29.28;99860.03;5111851;28;20080;-51
2022/04/28 07:47:52;;;;;;;9.40;2.30;;;;;;;27.60;29.70;99857.78;5112710;28;20402;-49
2022/04/28 07:50:18;;;;;;;4.80;2.28;;;;;;;27.59;29.58;99861.66;5094963;28;20035;-50
2022/04/28 07:52:44;;;;;;;7.57;2.22;;;;;;;27.13;29.63;99873.75;5094392;28;20486;-52
2022/04/28 07:55:10;;;;;;;8.25;2.30;;;;;;;26.69;30.77;99859.75;5094471;28;20027;-51
2022/04/28 07:57:36;;;;;;;5.85;2.45;;;;;;;26.91;30.40;99858.97;5112263;28;20027;-49
2022/04/28 08:00:03;;;;;;;6.95;2.67;;;;;;;26.28;30.70;99860.63;5111745;28;20028;-49
2022/04/28 08:02:29;;;;;;;7.30;2.22;;;;;;;25.90;32.42;99860.03;5111982;28;20055;-51
2022/04/28 08:04:55;;;;;;;6.70;2.33;;;;;;;26.43;32.04;99851.31;5082568;28;20094;-52
2022/04/28 08:07:21;;;;;;;4.40;2.38;;;;;;;27.19;29.76;99861.56;5104918;28;20085;-49
2022/04/28 08:09:47;;;;;;;6.22;2.40;;;;;;;28.06;29.06;99858.47;5110929;28;20032;-55
2022/04/28 08:12:13;;;;;;;10.48;2.42;;;;;;;27.54;29.41;99850.06;5111455;28;20412;-54
2022/04/28 08:14:39;;;;;;;6.32;2.65;;;;;;;27.51;30.04;99851.47;5111676;28;20380;-51
2022/04/28 08:17:05;;;;;;;6.05;2.38;;;;;;;27.92;29.85;99857.78;5111439;28;20020;-50
2022/04/28 08:19:32;;;;;;;14.43;2.88;;;;;;;27.96;29.08;99853.31;5111225;28;20023;-50
2022/04/28 08:21:58;;;;;;;4.88;2.25;;;;;;;28.32;28.95;99855.00;5110648;28;20024;-51
2022/04/28 08:24:23;;;;;;;5.47;2.40;;;;;;;28.15;28.46;99847.56;5110710;28;20172;-51
2022/04/28 08:26:49;;;;;;;6.78;2.50;;;;;;;28.07;29.03;99851.88;5108940;28;20015;-51
2022/04/28 08:29:15;;;;;;;4.32;2.38;;;;;;;27.88;28.63;99855.69;5109097;28;20038;-52
2022/04/28 08:31:44;;;;;;;4.95;2.28;;;;;;;28.54;28.24;99845.84;5109129;28;20038;-52
2022/04/28 08:34:13;;;;;;;;;;;;;;;28.71;28.41;99856.84;5109239;28;20027;-49
2022/04/28 08:36:40;;;;;;;6.60;2.38;;;;;;;28.89;26.90;99848.59;5109094;28;19999;-52
2022/04/28 08:39:06;;;;;;;3.42;2.20;;;;;;;28.83;27.97;99843.28;5109447;28;20028;-49
2022/04/28 08:41:34;;;;;;;6.40;2.30;;;;;;;28.77;27.41;99844.59;5109150;28;20024;-49
2022/04/28 08:44:02;;;;;;;5.30;2.43;;;;;;;29.03;28.19;99846.47;5108633;28;20023;-52
2022/04/28 08:49:13;;;;;;;8.90;2.20;;;;;;;29.74;27.40;99840.53;5111272;28;20042;-51
2022/04/28 08:51:40;;;;;;;3.92;2.30;;;;;;;29.52;26.24;99846.22;5110916;28;20106;-53
2022/04/28 08:54:05;;;;;;;4.65;2.22;;;;;;;29.68;25.79;99833.56;5110782;28;20027;-50
2022/04/28 08:56:31;;;;;;;7.22;2.10;;;;;;;30.03;26.08;99847.16;5110320;28;20020;-51
2022/04/28 08:58:57;;;;;;;5.68;2.50;;;;;;;29.74;24.80;99836.97;5110353;28;20071;-52
2022/04/28 09:01:27;;;;;;;4.57;2.05;;;;;;;29.44;25.28;99832.22;5110921;28;20114;-49
2022/04/28 09:03:57;;;;;;;5.78;2.20;;;;;;;30.07;24.78;99836.31;5110377;28;20371;-51
2022/04/28 09:06:23;;;;;;;5.97;2.40;;;;;;;29.41;24.50;99835.59;5110159;28;20040;-51
2022/04/28 09:08:50;;;;;;;3.80;1.98;;;;;;;29.41;24.65;99830.13;5110371;28;20406;-49
2022/04/28 09:11:23;;;;;;;7.10;2.40;;;;;;;28.53;25.87;99828.63;5110583;28;20026;-48
2022/04/28 09:14:10;;;;;;;6.70;2.47;;;;;;;29.15;26.13;99832.13;5110186;28;20019;-49
2022/04/28 09:16:42;;;;;;;5.30;2.08;;;;;;;29.31;25.74;99829.69;5110206;28;20058;-51
2022/04/28 09:19:12;;;;;;;3.80;1.92;;;;;;;29.51;25.33;99834.47;5110506;28;20031;-48
2022/04/28 09:21:37;;;;;;;4.80;2.30;;;;;;;28.01;26.26;99799.28;5110675;28;20066;-51
2022/04/28 09:24:04;;;;;;;6.68;2.13;;;;;;;27.79;26.69;99826.69;5110018;28;20553;-53
2022/04/28 09:26:34;;;;;;;4.25;2.13;;;;;;;27.53;26.69;99827.41;5109838;28;20028;-51
2022/04/28 09:29:04;;;;;;;4.93;2.33;;;;;;;26.62;28.01;99823.91;5110186;28;20124;-50
2022/04/28 09:31:34;;;;;;;5.82;2.13;;;;;;;26.10;29.28;99829.66;5109962;28;20023;-51
2022/04/28 09:34:12;;;;;;;5.22;2.00;;;;;;;26.92;28.66;99813.34;5109262;28;20026;-50
2022/04/28 09:36:39;;;;;;;4.78;2.10;;;;;;;27.17;28.05;99822.00;5109963;28;20026;-50
2022/04/28 09:39:07;;;;;;;2.95;2.10;;;;;;;26.29;29.66;99825.97;5109795;28;20016;-50
2022/04/28 09:44:19;;;;;;;6.93;2.30;;;;;;;26.96;28.83;99802.59;5110150;28;20552;-49
2022/04/28 09:46:46;;;;;;;7.28;2.20;;;;;;;28.42;26.99;99806.22;5110242;28;20028;-48
2022/04/28 09:49:13;;;;;;;3.92;1.98;;;;;;;28.57;26.87;99804.16;5109852;28;20516;-50
2022/04/28 09:51:40;;;;;;;4.50;2.30;;;;;;;29.51;25.41;99806.22;5109996;28;20027;-49
2022/04/28 09:54:09;;;;;;;2.72;1.83;;;;;;;30.18;24.66;99804.63;5109177;28;20030;-51
2022/04/28 09:56:36;;;;;;;4.50;2.00;;;;;;;28.85;26.53;99801.91;5111546;28;20061;-51
2022/04/28 09:59:05;;;;;;;6.53;2.33;;;;;;;28.60;26.80;99798.84;5114077;28;20039;-52
2022/04/28 10:01:31;;;;;;;4.60;2.33;;;;;;;28.33;27.37;99802.69;5114361;28;20020;-53
2022/04/28 10:03:57;;;;;;;2.92;2.17;;;;;;;28.12;27.82;99801.69;5114068;28;20043;-51
2022/04/28 10:06:25;;;;;;;5.32;2.40;;;;;;;28.76;26.14;99790.94;5113639;28;20055;-52
2022/04/28 10:08:52;;;;;;;6.40;2.15;;;;;;;28.23;28.35;99797.53;5113565;28;20023;-53
2022/04/28 10:11:22;;;;;;;3.85;1.80;;;;;;;28.34;27.38;99789.81;5112981;28;20046;-51
2022/04/28 10:13:49;;;;;;;3.30;2.00;;;;;;;28.51;27.59;99781.59;5113508;28;20100;-49
2022/04/28 10:16:16;;;;;;;4.28;2.35;;;;;;;28.97;26.65;99776.56;5113776;28;20440;-51
2022/04/28 10:18:54;;;;;;;3.80;2.10;;;;;;;29.16;27.13;99773.50;5113474;28;20470;-49
2022/04/28 10:21:30;;;;;;;5.45;2.30;;;;;;;28.76;27.84;99770.97;5113463;28;20031;-52
2022/04/28 10:32:56;;;;;;;6.20;2.10;;;;;;;28.06;27.93;99779.97;5113736;28;20461;-51
2022/04/28 10:35:42;;;;;;;2.75;1.70;;;;;;;28.75;27.54;99772.91;5112936;28;20495;-50
2022/04/28 10:38:17;;;;;;;2.60;1.65;;;;;;;28.99;27.50;99785.25;5113145;28;20023;-51
2022/04/28 10:40:53;;;;;;;6.25;2.00;;;;;;;28.47;27.89;99783.38;5113037;28;20020;-51
2022/04/28 10:43:21;;;;;;;4.63;2.00;;;;;;;27.69;27.99;99773.91;5112502;28;20034;-50
2022/04/28 10:45:49;;;;;;;5.38;2.00;;;;;;;27.65;28.37;99774.88;5113119;28;20529;-52
2022/04/28 10:48:27;;;;;;;3.30;1.80;;;;;;;25.87;30.93;99784.31;5113163;28;20055;-50
2022/04/28 10:51:12;;;;;;;5.57;1.88;;;;;;;26.48;30.02;99784.91;5113484;28;20054;-51
2022/04/28 10:54:22;;;;;;;6.45;1.90;;;;;;;26.73;29.60;99775.31;5112966;28;20023;-52
2022/04/28 10:56:52;;;;;;;3.88;2.10;;;;;;;27.04;28.99;99785.50;5113255;28;20072;-51
2022/04/28 10:59:32;;;;;;;5.72;2.10;;;;;;;27.27;28.93;99789.03;5112932;28;20034;-52
2022/04/28 11:02:17;;;;;;;6.25;2.03;;;;;;;27.15;30.21;99784.13;5112984;28;20035;-49
2022/04/28 11:04:54;;;;;;;8.88;2.65;;;;;;;26.95;29.93;99785.44;5112273;28;20448;-51
2022/04/28 11:07:24;;;;;;;5.88;1.92;;;;;;;26.24;30.37;99777.00;5112190;28;20019;-53
2022/04/28 11:09:55;;;;;;;4.03;2.00;;;;;;;25.60;31.34;99779.69;5112667;28;20048;-51
2022/04/28 11:12:22;;;;;;;4.60;1.83;;;;;;;25.11;32.49;99790.91;5112792;28;20039;-51
2022/04/28 11:14:47;;;;;;;5.28;2.30;;;;;;;24.12;34.58;99781.81;5112215;28;20031;-51
2022/04/28 11:17:15;;;;;;;6.10;2.40;;;;;;;24.23;34.44;99770.78;5112490;28;20092;-51
2022/04/28 11:19:42;;;;;;;4.13;2.20;;;;;;;24.19;34.76;99762.38;5112931;28;20036;-52
2022/04/28 11:22:08;;;;;;;6.80;2.20;;;;;;;24.51;34.01;99752.69;5112536;28;20039;-50
2022/04/28 11:24:33;;;;;;;4.10;2.20;;;;;;;25.22;33.24;99750.66;5112250;28;20032;-52
2022/04/28 11:27:00;;;;;;;6.03;2.30;;;;;;;25.44;32.89;99751.94;5112377;28;20077;-51
2022/04/28 11:29:27;;;;;;;3.80;2.25;;;;;;;25.72;32.19;99747.28;5112335;28;20180;-51
2022/04/28 11:31:53;;;;;;;4.22;2.30;;;;;;;25.61;32.43;99754.88;5111697;28;20502;-51
2022/04/28 11:34:19;;;;;;;4.75;2.45;;;;;;;25.40;32.67;99742.75;5111731;28;20031;-49
2022/04/28 11:36:45;;;;;;;3.80;2.10;;;;;;;26.25;31.81;99743.16;5111577;28;20090;-49
2022/04/28 11:39:11;;;;;;;3.97;1.98;;;;;;;25.47;32.80;99740.44;5112509;28;20032;-52
2022/04/28 11:41:40;;;;;;;6.20;2.40;;;;;;;25.44;32.71;99727.44;5111722;28;20111;-48
2022/04/28 11:44:06;;;;;;;;;;;;;;;26.45;30.94;99745.41;5112276;28;20111;-50
2022/04/28 11:46:46;;;;;;;2.78;2.05;;;;;;;26.47;31.57;99745.91;5111570;28;20002;-48
2022/04/28 11:49:11;;;;;;;3.13;2.38;;;;;;;26.93;30.55;99738.53;5111987;28;20051;-51
2022/04/28 11:51:37;;;;;;;4.18;2.08;;;;;;;27.58;29.51;99739.78;5112118;28;20451;-48
2022/04/28 11:54:22;;;;;;;3.55;2.10;;;;;;;27.92;29.09;99749.22;5111475;28;20031;-50
2022/04/28 11:56:48;;;;;;;4.70;2.08;;;;;;;27.98;29.07;99744.41;5111937;28;20043;-50
2022/04/28 11:59:13;;;;;;;5.72;2.30;;;;;;;28.08;29.04;99733.16;5112002;28;20420;-52
2022/04/28 12:01:39;;;;;;;8.50;2.30;;;;;;;28.35;29.18;99744.91;5111648;28;20057;-52
2022/04/28 12:04:05;;;;;;;4.90;2.10;;;;;;;28.49;27.85;99750.22;5111992;28;20057;-49
2022/04/28 12:06:31;;;;;;;6.18;2.20;;;;;;;27.97;28.84;99749.06;5111300;28;20513;-50